sensor_id;sensor_type;location;lat;lon;timestamp;temperature;humidity
3850;DHT22;1940;51.052;13.678;2024-01-11T00:00:20;-5.80;83.10
3850;DHT22;1940;51.052;13.678;2024-01-11T00:02:46;-5.80;83.30
3850;DHT22;1940;51.052;13.678;2024-01-11T00:05:11;-5.80;83.30
3850;DHT22;1940;51.052;13.678;2024-01-11T00:07:37;-5.90;83.00
3850;DHT22;1940;51.052;13.678;2024-01-11T00:10:03;-5.90;83.30
3850;DHT22;1940;51.052;13.678;2024-01-11T00:12:28;-5.90;83.50
3850;DHT22;1940;51.052;13.678;2024-01-11T00:14:54;-5.90;83.40
3850;DHT22;1940;51.052;13.678;2024-01-11T00:17:19;-5.90;83.50
3850;DHT22;1940;51.052;13.678;2024-01-11T00:19:45;-5.90;83.80
3850;DHT22;1940;51.052;13.678;2024-01-11T00:22:10;-5.90;84.10
3850;DHT22;1940;51.052;13.678;2024-01-11T00:24:36;-5.90;84.10
3850;DHT22;1940;51.052;13.678;2024-01-11T00:27:01;-6.00;84.20
3850;DHT22;1940;51.052;13.678;2024-01-11T00:29:27;-6.00;84.50
3850;DHT22;1940;51.052;13.678;2024-01-11T00:31:54;-6.00;84.40
3850;DHT22;1940;51.052;13.678;2024-01-11T00:34:19;-6.00;84.50
3850;DHT22;1940;51.052;13.678;2024-01-11T00:36:45;-6.00;84.50
3850;DHT22;1940;51.052;13.678;2024-01-11T00:39:10;-6.00;84.70
3850;DHT22;1940;51.052;13.678;2024-01-11T00:41:37;-6.00;84.70
3850;DHT22;1940;51.052;13.678;2024-01-11T00:44:02;-5.90;84.70
3850;DHT22;1940;51.052;13.678;2024-01-11T00:46:28;-6.00;85.10
3850;DHT22;1940;51.052;13.678;2024-01-11T00:48:53;-6.00;85.20
3850;DHT22;1940;51.052;13.678;2024-01-11T00:51:19;-6.00;85.10
3850;DHT22;1940;51.052;13.678;2024-01-11T00:53:44;-6.10;85.10
3850;DHT22;1940;51.052;13.678;2024-01-11T00:56:19;-6.10;84.90
3850;DHT22;1940;51.052;13.678;2024-01-11T00:58:45;-6.10;84.70
3850;DHT22;1940;51.052;13.678;2024-01-11T01:01:12;-6.20;84.60
3850;DHT22;1940;51.052;13.678;2024-01-11T01:03:38;-6.20;84.50
3850;DHT22;1940;51.052;13.678;2024-01-11T01:06:04;-6.30;84.70
3850;DHT22;1940;51.052;13.678;2024-01-11T01:08:30;-6.30;84.60
3850;DHT22;1940;51.052;13.678;2024-01-11T01:10:55;-6.30;84.60
3850;DHT22;1940;51.052;13.678;2024-01-11T01:13:21;-6.30;84.80
3850;DHT22;1940;51.052;13.678;2024-01-11T01:15:46;-6.30;84.90
3850;DHT22;1940;51.052;13.678;2024-01-11T01:18:12;-6.30;84.90
3850;DHT22;1940;51.052;13.678;2024-01-11T01:20:37;-6.30;84.80
3850;DHT22;1940;51.052;13.678;2024-01-11T01:23:03;-6.30;84.90
3850;DHT22;1940;51.052;13.678;2024-01-11T01:25:28;-6.30;85.10
3850;DHT22;1940;51.052;13.678;2024-01-11T01:27:55;-6.40;85.10
3850;DHT22;1940;51.052;13.678;2024-01-11T01:30:21;-6.40;85.20
3850;DHT22;1940;51.052;13.678;2024-01-11T01:32:47;-6.40;85.00
3850;DHT22;1940;51.052;13.678;2024-01-11T01:35:12;-6.30;84.70
3850;DHT22;1940;51.052;13.678;2024-01-11T01:37:38;-6.40;84.50
3850;DHT22;1940;51.052;13.678;2024-01-11T01:40:04;-6.50;84.60
3850;DHT22;1940;51.052;13.678;2024-01-11T01:42:29;-6.50;84.50
3850;DHT22;1940;51.052;13.678;2024-01-11T01:44:55;-6.50;84.60
3850;DHT22;1940;51.052;13.678;2024-01-11T01:47:21;-6.60;84.80
3850;DHT22;1940;51.052;13.678;2024-01-11T01:49:48;-6.60;85.00
3850;DHT22;1940;51.052;13.678;2024-01-11T01:52:15;-6.60;85.50
3850;DHT22;1940;51.052;13.678;2024-01-11T01:54:41;-6.60;85.90
3850;DHT22;1940;51.052;13.678;2024-01-11T01:57:08;-6.70;86.00
3850;DHT22;1940;51.052;13.678;2024-01-11T01:59:34;-6.60;86.30
3850;DHT22;1940;51.052;13.678;2024-01-11T02:02:00;-6.60;86.40
3850;DHT22;1940;51.052;13.678;2024-01-11T02:04:26;-6.60;86.70
3850;DHT22;1940;51.052;13.678;2024-01-11T02:06:53;-6.60;86.70
3850;DHT22;1940;51.052;13.678;2024-01-11T02:12:41;-6.70;86.80
3850;DHT22;1940;51.052;13.678;2024-01-11T02:15:07;-6.70;86.60
3850;DHT22;1940;51.052;13.678;2024-01-11T02:17:33;-6.70;86.80
3850;DHT22;1940;51.052;13.678;2024-01-11T02:19:59;-6.60;86.90
3850;DHT22;1940;51.052;13.678;2024-01-11T02:22:29;-6.60;86.90
3850;DHT22;1940;51.052;13.678;2024-01-11T02:24:57;-6.60;87.10
3850;DHT22;1940;51.052;13.678;2024-01-11T02:27:23;-6.50;87.20
3850;DHT22;1940;51.052;13.678;2024-01-11T02:29:48;-6.50;87.20
3850;DHT22;1940;51.052;13.678;2024-01-11T02:32:14;-6.50;87.30
3850;DHT22;1940;51.052;13.678;2024-01-11T02:34:40;-6.50;87.30
3850;DHT22;1940;51.052;13.678;2024-01-11T02:37:06;-6.60;87.30
3850;DHT22;1940;51.052;13.678;2024-01-11T02:39:32;-6.60;87.30
3850;DHT22;1940;51.052;13.678;2024-01-11T02:41:59;-6.70;87.20
3850;DHT22;1940;51.052;13.678;2024-01-11T02:44:24;-6.70;86.90
3850;DHT22;1940;51.052;13.678;2024-01-11T02:46:50;-6.70;86.80
3850;DHT22;1940;51.052;13.678;2024-01-11T02:49:15;-6.70;86.70
3850;DHT22;1940;51.052;13.678;2024-01-11T02:51:41;-6.60;86.80
3850;DHT22;1940;51.052;13.678;2024-01-11T02:54:06;-6.70;86.70
3850;DHT22;1940;51.052;13.678;2024-01-11T02:56:32;-6.70;86.60
3850;DHT22;1940;51.052;13.678;2024-01-11T02:58:57;-6.70;86.60
3850;DHT22;1940;51.052;13.678;2024-01-11T03:01:23;-6.70;86.60
3850;DHT22;1940;51.052;13.678;2024-01-11T03:03:48;-6.70;86.40
3850;DHT22;1940;51.052;13.678;2024-01-11T03:06:14;-6.70;86.30
3850;DHT22;1940;51.052;13.678;2024-01-11T03:08:39;-6.70;86.30
3850;DHT22;1940;51.052;13.678;2024-01-11T03:11:05;-6.70;86.30
3850;DHT22;1940;51.052;13.678;2024-01-11T03:13:31;-6.70;86.40
3850;DHT22;1940;51.052;13.678;2024-01-11T03:15:56;-6.80;86.50
3850;DHT22;1940;51.052;13.678;2024-01-11T03:18:22;-6.80;86.50
3850;DHT22;1940;51.052;13.678;2024-01-11T03:20:48;-6.80;86.50
3850;DHT22;1940;51.052;13.678;2024-01-11T03:23:13;-6.80;86.30
3850;DHT22;1940;51.052;13.678;2024-01-11T03:25:39;-6.80;86.50
3850;DHT22;1940;51.052;13.678;2024-01-11T03:28:04;-6.80;86.60
3850;DHT22;1940;51.052;13.678;2024-01-11T03:30:30;-6.70;86.80
3850;DHT22;1940;51.052;13.678;2024-01-11T03:32:55;-6.70;86.80
3850;DHT22;1940;51.052;13.678;2024-01-11T03:35:21;-6.80;86.90
3850;DHT22;1940;51.052;13.678;2024-01-11T03:37:46;-6.80;87.10
3850;DHT22;1940;51.052;13.678;2024-01-11T03:40:12;-6.80;87.20
3850;DHT22;1940;51.052;13.678;2024-01-11T03:42:39;-6.90;87.20
3850;DHT22;1940;51.052;13.678;2024-01-11T03:45:05;-6.90;87.30
3850;DHT22;1940;51.052;13.678;2024-01-11T03:47:30;-6.80;87.40
3850;DHT22;1940;51.052;13.678;2024-01-11T03:49:56;-6.80;87.20
3850;DHT22;1940;51.052;13.678;2024-01-11T03:52:22;-6.80;87.10
3850;DHT22;1940;51.052;13.678;2024-01-11T03:54:48;-6.80;87.20
3850;DHT22;1940;51.052;13.678;2024-01-11T03:57:14;-6.80;87.20
3850;DHT22;1940;51.052;13.678;2024-01-11T03:59:40;-6.80;87.30
3850;DHT22;1940;51.052;13.678;2024-01-11T04:02:06;-6.90;87.20
3850;DHT22;1940;51.052;13.678;2024-01-11T04:04:32;-7.10;87.00
3850;DHT22;1940;51.052;13.678;2024-01-11T04:06:58;-7.20;86.90
3850;DHT22;1940;51.052;13.678;2024-01-11T04:09:23;-7.30;87.40
3850;DHT22;1940;51.052;13.678;2024-01-11T04:11:49;-7.40;87.60
3850;DHT22;1940;51.052;13.678;2024-01-11T04:14:14;-7.40;87.90
3850;DHT22;1940;51.052;13.678;2024-01-11T04:16:43;-7.50;88.10
3850;DHT22;1940;51.052;13.678;2024-01-11T04:19:09;-7.60;88.10
3850;DHT22;1940;51.052;13.678;2024-01-11T04:21:34;-7.50;88.40
3850;DHT22;1940;51.052;13.678;2024-01-11T04:24:00;-7.50;88.10
3850;DHT22;1940;51.052;13.678;2024-01-11T04:26:26;-7.40;87.90
3850;DHT22;1940;51.052;13.678;2024-01-11T04:28:52;-7.40;87.90
3850;DHT22;1940;51.052;13.678;2024-01-11T04:31:18;-7.40;87.90
3850;DHT22;1940;51.052;13.678;2024-01-11T04:33:44;-7.30;88.00
3850;DHT22;1940;51.052;13.678;2024-01-11T04:36:10;-7.40;87.80
3850;DHT22;1940;51.052;13.678;2024-01-11T04:38:36;-7.50;87.80
3850;DHT22;1940;51.052;13.678;2024-01-11T04:41:06;-7.40;88.10
3850;DHT22;1940;51.052;13.678;2024-01-11T04:43:32;-7.40;88.00
3850;DHT22;1940;51.052;13.678;2024-01-11T04:45:57;-7.50;87.90
3850;DHT22;1940;51.052;13.678;2024-01-11T04:48:23;-7.70;88.30
3850;DHT22;1940;51.052;13.678;2024-01-11T04:50:48;-7.70;89.10
3850;DHT22;1940;51.052;13.678;2024-01-11T04:53:14;-7.50;89.30
3850;DHT22;1940;51.052;13.678;2024-01-11T04:55:40;-7.40;89.40
3850;DHT22;1940;51.052;13.678;2024-01-11T04:58:06;-7.40;89.30
3850;DHT22;1940;51.052;13.678;2024-01-11T05:00:31;-7.30;89.40
3850;DHT22;1940;51.052;13.678;2024-01-11T05:02:57;-7.30;89.20
3850;DHT22;1940;51.052;13.678;2024-01-11T05:05:22;-7.30;89.20
3850;DHT22;1940;51.052;13.678;2024-01-11T05:07:48;-7.30;89.10
3850;DHT22;1940;51.052;13.678;2024-01-11T05:10:13;-7.30;89.30
3850;DHT22;1940;51.052;13.678;2024-01-11T05:12:39;-7.20;89.20
3850;DHT22;1940;51.052;13.678;2024-01-11T05:15:06;-7.20;89.50
3850;DHT22;1940;51.052;13.678;2024-01-11T05:17:33;-7.10;89.50
3850;DHT22;1940;51.052;13.678;2024-01-11T05:19:58;-7.10;89.50
3850;DHT22;1940;51.052;13.678;2024-01-11T05:22:24;-7.10;89.70
3850;DHT22;1940;51.052;13.678;2024-01-11T05:24:49;-7.10;89.80
3850;DHT22;1940;51.052;13.678;2024-01-11T05:27:15;-7.00;90.00
3850;DHT22;1940;51.052;13.678;2024-01-11T05:29:41;-6.90;90.20
3850;DHT22;1940;51.052;13.678;2024-01-11T05:32:06;-7.00;90.00
3850;DHT22;1940;51.052;13.678;2024-01-11T05:34:31;-7.10;89.80
3850;DHT22;1940;51.052;13.678;2024-01-11T05:36:57;-7.10;89.50
3850;DHT22;1940;51.052;13.678;2024-01-11T05:39:22;-7.20;89.40
3850;DHT22;1940;51.052;13.678;2024-01-11T05:41:48;-7.20;89.70
3850;DHT22;1940;51.052;13.678;2024-01-11T05:44:13;-7.10;89.70
3850;DHT22;1940;51.052;13.678;2024-01-11T05:46:39;-7.10;89.50
3850;DHT22;1940;51.052;13.678;2024-01-11T05:49:04;-7.10;89.60
3850;DHT22;1940;51.052;13.678;2024-01-11T05:51:30;-7.10;89.30
3850;DHT22;1940;51.052;13.678;2024-01-11T05:53:55;-7.10;89.20
3850;DHT22;1940;51.052;13.678;2024-01-11T05:56:21;-7.00;89.00
3850;DHT22;1940;51.052;13.678;2024-01-11T05:58:46;-7.00;88.90
3850;DHT22;1940;51.052;13.678;2024-01-11T06:01:12;-7.00;88.80
3850;DHT22;1940;51.052;13.678;2024-01-11T06:03:38;-7.00;88.70
3850;DHT22;1940;51.052;13.678;2024-01-11T06:06:05;-7.10;88.70
3850;DHT22;1940;51.052;13.678;2024-01-11T06:08:31;-7.00;88.20
3850;DHT22;1940;51.052;13.678;2024-01-11T06:10:59;-7.10;88.00
3850;DHT22;1940;51.052;13.678;2024-01-11T06:13:25;-7.00;88.10
3850;DHT22;1940;51.052;13.678;2024-01-11T06:15:51;-7.00;88.20
3850;DHT22;1940;51.052;13.678;2024-01-11T06:18:17;-7.00;88.20
3850;DHT22;1940;51.052;13.678;2024-01-11T06:20:42;-7.10;88.20
3850;DHT22;1940;51.052;13.678;2024-01-11T06:23:07;-7.10;88.20
3850;DHT22;1940;51.052;13.678;2024-01-11T06:25:33;-7.10;88.10
3850;DHT22;1940;51.052;13.678;2024-01-11T06:27:59;-7.10;88.00
3850;DHT22;1940;51.052;13.678;2024-01-11T06:30:25;-7.10;87.80
3850;DHT22;1940;51.052;13.678;2024-01-11T06:32:52;-7.10;88.00
3850;DHT22;1940;51.052;13.678;2024-01-11T06:35:17;-7.10;88.00
3850;DHT22;1940;51.052;13.678;2024-01-11T06:37:43;-7.10;87.80
3850;DHT22;1940;51.052;13.678;2024-01-11T06:40:09;-7.20;88.00
3850;DHT22;1940;51.052;13.678;2024-01-11T06:42:34;-7.10;88.30
3850;DHT22;1940;51.052;13.678;2024-01-11T06:45:00;-7.10;88.30
3850;DHT22;1940;51.052;13.678;2024-01-11T06:47:26;-7.20;88.50
3850;DHT22;1940;51.052;13.678;2024-01-11T06:49:52;-7.10;88.70
3850;DHT22;1940;51.052;13.678;2024-01-11T06:52:18;-7.10;89.00
3850;DHT22;1940;51.052;13.678;2024-01-11T06:54:45;-7.10;89.10
3850;DHT22;1940;51.052;13.678;2024-01-11T06:57:10;-7.10;89.20
3850;DHT22;1940;51.052;13.678;2024-01-11T06:59:36;-7.10;89.40
3850;DHT22;1940;51.052;13.678;2024-01-11T07:02:01;-7.00;89.50
3850;DHT22;1940;51.052;13.678;2024-01-11T07:04:28;-6.90;89.50
3850;DHT22;1940;51.052;13.678;2024-01-11T07:06:53;-6.80;89.50
3850;DHT22;1940;51.052;13.678;2024-01-11T07:09:19;-6.70;89.50
3850;DHT22;1940;51.052;13.678;2024-01-11T07:11:45;-6.70;89.30
3850;DHT22;1940;51.052;13.678;2024-01-11T07:14:11;-6.70;88.90
3850;DHT22;1940;51.052;13.678;2024-01-11T07:16:44;-6.80;88.50
3850;DHT22;1940;51.052;13.678;2024-01-11T07:19:10;-6.80;88.40
3850;DHT22;1940;51.052;13.678;2024-01-11T07:21:36;-6.90;88.40
3850;DHT22;1940;51.052;13.678;2024-01-11T07:24:02;-6.90;88.90
3850;DHT22;1940;51.052;13.678;2024-01-11T07:26:28;-6.80;88.80
3850;DHT22;1940;51.052;13.678;2024-01-11T07:28:54;-6.90;88.70
3850;DHT22;1940;51.052;13.678;2024-01-11T07:31:20;-6.90;88.90
3850;DHT22;1940;51.052;13.678;2024-01-11T07:33:46;-6.90;88.90
3850;DHT22;1940;51.052;13.678;2024-01-11T07:36:11;-6.90;88.80
3850;DHT22;1940;51.052;13.678;2024-01-11T07:38:37;-6.80;88.80
3850;DHT22;1940;51.052;13.678;2024-01-11T07:41:03;-6.70;88.80
3850;DHT22;1940;51.052;13.678;2024-01-11T07:43:28;-6.60;88.60
3850;DHT22;1940;51.052;13.678;2024-01-11T07:45:55;-6.50;88.60
3850;DHT22;1940;51.052;13.678;2024-01-11T07:48:22;-6.40;88.40
3850;DHT22;1940;51.052;13.678;2024-01-11T07:50:48;-6.30;88.30
3850;DHT22;1940;51.052;13.678;2024-01-11T07:53:14;-6.20;88.00
3850;DHT22;1940;51.052;13.678;2024-01-11T07:55:40;-6.00;87.90
3850;DHT22;1940;51.052;13.678;2024-01-11T07:58:05;-5.90;87.20
3850;DHT22;1940;51.052;13.678;2024-01-11T08:00:31;-5.90;86.60
3850;DHT22;1940;51.052;13.678;2024-01-11T08:02:56;-5.90;86.40
3850;DHT22;1940;51.052;13.678;2024-01-11T08:05:22;-5.80;86.60
3850;DHT22;1940;51.052;13.678;2024-01-11T08:07:47;-5.80;86.40
3850;DHT22;1940;51.052;13.678;2024-01-11T08:10:13;-5.70;86.60
3850;DHT22;1940;51.052;13.678;2024-01-11T08:12:38;-5.70;86.40
3850;DHT22;1940;51.052;13.678;2024-01-11T08:15:04;-5.70;86.20
3850;DHT22;1940;51.052;13.678;2024-01-11T08:17:30;-5.70;86.20
3850;DHT22;1940;51.052;13.678;2024-01-11T08:19:55;-5.50;86.60
3850;DHT22;1940;51.052;13.678;2024-01-11T08:22:22;-4.90;87.00
3850;DHT22;1940;51.052;13.678;2024-01-11T08:24:47;-4.00;86.60
3850;DHT22;1940;51.052;13.678;2024-01-11T08:27:13;-3.20;83.70
3850;DHT22;1940;51.052;13.678;2024-01-11T08:29:39;-2.40;81.60
3850;DHT22;1940;51.052;13.678;2024-01-11T08:32:06;-1.90;79.70
3850;DHT22;1940;51.052;13.678;2024-01-11T08:34:32;-1.50;77.30
3850;DHT22;1940;51.052;13.678;2024-01-11T08:36:57;-1.10;75.20
3850;DHT22;1940;51.052;13.678;2024-01-11T08:39:23;-1.30;73.90
3850;DHT22;1940;51.052;13.678;2024-01-11T08:41:48;-1.30;73.90
3850;DHT22;1940;51.052;13.678;2024-01-11T08:44:14;-1.20;73.30
3850;DHT22;1940;51.052;13.678;2024-01-11T08:46:39;-1.30;73.20
3850;DHT22;1940;51.052;13.678;2024-01-11T08:49:05;-1.10;73.20
3850;DHT22;1940;51.052;13.678;2024-01-11T08:51:31;-0.50;72.60
3850;DHT22;1940;51.052;13.678;2024-01-11T08:53:58;0.20;70.90
3850;DHT22;1940;51.052;13.678;2024-01-11T08:56:23;1.20;69.20
3850;DHT22;1940;51.052;13.678;2024-01-11T08:58:49;2.40;66.90
3850;DHT22;1940;51.052;13.678;2024-01-11T09:01:15;3.00;64.00
3850;DHT22;1940;51.052;13.678;2024-01-11T09:03:41;4.40;62.20
3850;DHT22;1940;51.052;13.678;2024-01-11T09:06:07;5.30;58.70
3850;DHT22;1940;51.052;13.678;2024-01-11T09:08:32;4.90;56.90
3850;DHT22;1940;51.052;13.678;2024-01-11T09:10:58;4.60;57.80
3850;DHT22;1940;51.052;13.678;2024-01-11T09:13:25;3.90;58.50
3850;DHT22;1940;51.052;13.678;2024-01-11T09:15:53;2.90;60.50
3850;DHT22;1940;51.052;13.678;2024-01-11T09:18:19;2.10;63.10
3850;DHT22;1940;51.052;13.678;2024-01-11T09:20:45;2.60;63.90
3850;DHT22;1940;51.052;13.678;2024-01-11T09:23:11;3.40;61.70
3850;DHT22;1940;51.052;13.678;2024-01-11T09:25:37;3.10;61.20
3850;DHT22;1940;51.052;13.678;2024-01-11T09:28:02;3.20;61.70
3850;DHT22;1940;51.052;13.678;2024-01-11T09:30:29;3.50;61.00
3850;DHT22;1940;51.052;13.678;2024-01-11T09:32:55;3.90;60.30
3850;DHT22;1940;51.052;13.678;2024-01-11T09:35:21;4.70;58.90
3850;DHT22;1940;51.052;13.678;2024-01-11T09:37:47;4.80;59.00
3850;DHT22;1940;51.052;13.678;2024-01-11T09:40:12;5.90;57.30
3850;DHT22;1940;51.052;13.678;2024-01-11T09:42:38;6.50;55.40
3850;DHT22;1940;51.052;13.678;2024-01-11T09:45:17;7.30;54.10
3850;DHT22;1940;51.052;13.678;2024-01-11T09:47:44;7.70;53.00
3850;DHT22;1940;51.052;13.678;2024-01-11T09:50:11;7.20;52.20
3850;DHT22;1940;51.052;13.678;2024-01-11T09:52:47;5.70;54.70
3850;DHT22;1940;51.052;13.678;2024-01-11T09:55:16;4.20;57.90
3850;DHT22;1940;51.052;13.678;2024-01-11T09:57:45;3.10;60.50
3850;DHT22;1940;51.052;13.678;2024-01-11T10:00:18;2.30;62.60
3850;DHT22;1940;51.052;13.678;2024-01-11T10:02:45;1.70;64.20
3850;DHT22;1940;51.052;13.678;2024-01-11T10:05:11;1.50;65.40
3850;DHT22;1940;51.052;13.678;2024-01-11T10:07:39;1.30;66.00
3850;DHT22;1940;51.052;13.678;2024-01-11T10:10:05;1.10;67.00
3850;DHT22;1940;51.052;13.678;2024-01-11T10:12:34;0.60;68.40
3850;DHT22;1940;51.052;13.678;2024-01-11T10:15:08;0.50;69.50
3850;DHT22;1940;51.052;13.678;2024-01-11T10:17:35;0.60;69.60
3850;DHT22;1940;51.052;13.678;2024-01-11T10:20:01;0.70;69.70
3850;DHT22;1940;51.052;13.678;2024-01-11T10:22:27;0.50;70.00
3850;DHT22;1940;51.052;13.678;2024-01-11T10:25:13;0.30;70.70
3850;DHT22;1940;51.052;13.678;2024-01-11T10:27:43;0.00;71.60
3850;DHT22;1940;51.052;13.678;2024-01-11T10:30:11;-0.30;72.50
3850;DHT22;1940;51.052;13.678;2024-01-11T10:32:38;-0.40;73.00
3850;DHT22;1940;51.052;13.678;2024-01-11T10:35:04;-0.50;73.50
3850;DHT22;1940;51.052;13.678;2024-01-11T10:37:31;-0.20;73.60
3850;DHT22;1940;51.052;13.678;2024-01-11T10:40:04;-0.20;73.20
3850;DHT22;1940;51.052;13.678;2024-01-11T10:42:36;-0.50;73.90
3850;DHT22;1940;51.052;13.678;2024-01-11T10:45:14;-0.60;74.80
3850;DHT22;1940;51.052;13.678;2024-01-11T10:47:46;0.00;75.20
3850;DHT22;1940;51.052;13.678;2024-01-11T10:50:12;0.80;73.30
3850;DHT22;1940;51.052;13.678;2024-01-11T10:52:43;1.50;71.10
3850;DHT22;1940;51.052;13.678;2024-01-11T10:55:12;2.40;69.50
3850;DHT22;1940;51.052;13.678;2024-01-11T10:57:38;4.20;67.10
3850;DHT22;1940;51.052;13.678;2024-01-11T11:00:05;5.90;61.10
3850;DHT22;1940;51.052;13.678;2024-01-11T11:02:34;7.20;58.50
3850;DHT22;1940;51.052;13.678;2024-01-11T11:05:01;7.60;56.00
3850;DHT22;1940;51.052;13.678;2024-01-11T11:07:33;7.80;54.60
3850;DHT22;1940;51.052;13.678;2024-01-11T11:10:01;7.70;54.80
3850;DHT22;1940;51.052;13.678;2024-01-11T11:12:28;7.50;54.50
3850;DHT22;1940;51.052;13.678;2024-01-11T11:14:56;6.80;55.10
3850;DHT22;1940;51.052;13.678;2024-01-11T11:17:22;6.70;55.50
3850;DHT22;1940;51.052;13.678;2024-01-11T11:19:47;6.70;55.40
3850;DHT22;1940;51.052;13.678;2024-01-11T11:22:13;6.00;55.30
3850;DHT22;1940;51.052;13.678;2024-01-11T11:24:40;6.20;55.00
3850;DHT22;1940;51.052;13.678;2024-01-11T11:27:06;6.80;54.20
3850;DHT22;1940;51.052;13.678;2024-01-11T11:29:32;7.30;53.40
3850;DHT22;1940;51.052;13.678;2024-01-11T11:31:57;7.60;52.60
3850;DHT22;1940;51.052;13.678;2024-01-11T11:34:43;8.90;51.40
3850;DHT22;1940;51.052;13.678;2024-01-11T11:37:10;10.20;49.50
3850;DHT22;1940;51.052;13.678;2024-01-11T11:39:36;11.00;47.40
3850;DHT22;1940;51.052;13.678;2024-01-11T11:42:02;11.70;45.80
3850;DHT22;1940;51.052;13.678;2024-01-11T11:44:29;11.00;44.80
3850;DHT22;1940;51.052;13.678;2024-01-11T11:47:04;11.10;45.40
3850;DHT22;1940;51.052;13.678;2024-01-11T11:52:29;11.70;43.20
3850;DHT22;1940;51.052;13.678;2024-01-11T11:54:56;10.70;43.10
3850;DHT22;1940;51.052;13.678;2024-01-11T11:57:22;9.30;43.70
3850;DHT22;1940;51.052;13.678;2024-01-11T11:59:48;8.70;45.30
3850;DHT22;1940;51.052;13.678;2024-01-11T12:02:16;8.70;45.20
3850;DHT22;1940;51.052;13.678;2024-01-11T12:04:47;7.50;45.70
3850;DHT22;1940;51.052;13.678;2024-01-11T12:07:13;6.20;48.10
3850;DHT22;1940;51.052;13.678;2024-01-11T12:09:39;5.30;49.90
3850;DHT22;1940;51.052;13.678;2024-01-11T12:12:04;4.60;50.80
3850;DHT22;1940;51.052;13.678;2024-01-11T12:14:30;4.00;51.80
3850;DHT22;1940;51.052;13.678;2024-01-11T12:16:57;3.50;52.20
3850;DHT22;1940;51.052;13.678;2024-01-11T12:19:23;3.10;53.30
3850;DHT22;1940;51.052;13.678;2024-01-11T12:21:49;2.90;54.40
3850;DHT22;1940;51.052;13.678;2024-01-11T12:24:16;2.80;55.20
3850;DHT22;1940;51.052;13.678;2024-01-11T12:26:42;2.70;55.20
3850;DHT22;1940;51.052;13.678;2024-01-11T12:29:08;2.40;56.20
3850;DHT22;1940;51.052;13.678;2024-01-11T12:31:34;2.30;57.30
3850;DHT22;1940;51.052;13.678;2024-01-11T12:34:03;1.90;57.90
3850;DHT22;1940;51.052;13.678;2024-01-11T12:36:29;1.60;58.70
3850;DHT22;1940;51.052;13.678;2024-01-11T12:38:55;1.50;58.60
3850;DHT22;1940;51.052;13.678;2024-01-11T12:41:21;1.70;58.80
3850;DHT22;1940;51.052;13.678;2024-01-11T12:43:48;1.70;58.40
3850;DHT22;1940;51.052;13.678;2024-01-11T12:46:13;1.60;57.90
3850;DHT22;1940;51.052;13.678;2024-01-11T12:48:39;1.50;58.10
3850;DHT22;1940;51.052;13.678;2024-01-11T12:51:05;1.50;57.70
3850;DHT22;1940;51.052;13.678;2024-01-11T12:53:30;1.40;58.30
3850;DHT22;1940;51.052;13.678;2024-01-11T12:56:04;1.50;56.70
3850;DHT22;1940;51.052;13.678;2024-01-11T12:58:33;1.50;56.50
3850;DHT22;1940;51.052;13.678;2024-01-11T13:00:59;1.60;56.10
3850;DHT22;1940;51.052;13.678;2024-01-11T13:03:25;1.50;56.50
3850;DHT22;1940;51.052;13.678;2024-01-11T13:05:52;1.40;57.20
3850;DHT22;1940;51.052;13.678;2024-01-11T13:08:18;1.50;57.70
3850;DHT22;1940;51.052;13.678;2024-01-11T13:10:43;1.60;57.80
3850;DHT22;1940;51.052;13.678;2024-01-11T13:13:09;1.40;57.60
3850;DHT22;1940;51.052;13.678;2024-01-11T13:15:35;1.20;58.20
3850;DHT22;1940;51.052;13.678;2024-01-11T13:18:01;1.00;58.80
3850;DHT22;1940;51.052;13.678;2024-01-11T13:20:28;0.90;59.00
3850;DHT22;1940;51.052;13.678;2024-01-11T13:23:17;0.70;59.80
3850;DHT22;1940;51.052;13.678;2024-01-11T13:25:45;0.70;60.40
3850;DHT22;1940;51.052;13.678;2024-01-11T13:28:11;0.60;60.20
3850;DHT22;1940;51.052;13.678;2024-01-11T13:30:38;0.60;60.50
3850;DHT22;1940;51.052;13.678;2024-01-11T13:33:07;0.60;60.90
3850;DHT22;1940;51.052;13.678;2024-01-11T13:35:34;0.70;61.10
3850;DHT22;1940;51.052;13.678;2024-01-11T13:37:59;0.60;60.40
3850;DHT22;1940;51.052;13.678;2024-01-11T13:40:25;0.60;60.90
3850;DHT22;1940;51.052;13.678;2024-01-11T13:42:54;0.50;61.00
3850;DHT22;1940;51.052;13.678;2024-01-11T13:45:19;0.50;60.80
3850;DHT22;1940;51.052;13.678;2024-01-11T13:47:45;0.50;61.30
3850;DHT22;1940;51.052;13.678;2024-01-11T13:50:10;0.30;61.80
3850;DHT22;1940;51.052;13.678;2024-01-11T13:52:36;0.40;61.80
3850;DHT22;1940;51.052;13.678;2024-01-11T13:55:01;0.40;60.90
3850;DHT22;1940;51.052;13.678;2024-01-11T13:57:27;0.40;60.50
3850;DHT22;1940;51.052;13.678;2024-01-11T13:59:53;0.40;60.80
3850;DHT22;1940;51.052;13.678;2024-01-11T14:02:18;0.30;61.10
3850;DHT22;1940;51.052;13.678;2024-01-11T14:04:44;0.30;61.40
3850;DHT22;1940;51.052;13.678;2024-01-11T14:07:09;0.20;61.10
3850;DHT22;1940;51.052;13.678;2024-01-11T14:09:35;0.30;61.10
3850;DHT22;1940;51.052;13.678;2024-01-11T14:12:00;0.30;61.00
3850;DHT22;1940;51.052;13.678;2024-01-11T14:14:26;0.20;61.00
3850;DHT22;1940;51.052;13.678;2024-01-11T14:16:51;0.10;61.20
3850;DHT22;1940;51.052;13.678;2024-01-11T14:19:17;0.00;61.70
3850;DHT22;1940;51.052;13.678;2024-01-11T14:21:43;-0.10;62.10
3850;DHT22;1940;51.052;13.678;2024-01-11T14:24:08;-0.10;63.70
3850;DHT22;1940;51.052;13.678;2024-01-11T14:26:34;-0.10;61.80
3850;DHT22;1940;51.052;13.678;2024-01-11T14:28:59;-0.20;61.30
3850;DHT22;1940;51.052;13.678;2024-01-11T14:31:26;-0.20;61.40
3850;DHT22;1940;51.052;13.678;2024-01-11T14:33:52;-0.30;61.70
3850;DHT22;1940;51.052;13.678;2024-01-11T14:36:17;-0.40;61.70
3850;DHT22;1940;51.052;13.678;2024-01-11T14:38:43;-0.50;61.80
3850;DHT22;1940;51.052;13.678;2024-01-11T14:41:09;-0.50;62.40
3850;DHT22;1940;51.052;13.678;2024-01-11T14:43:35;-0.60;62.40
3850;DHT22;1940;51.052;13.678;2024-01-11T14:46:00;-0.70;62.80
3850;DHT22;1940;51.052;13.678;2024-01-11T14:48:26;-0.70;63.30
3850;DHT22;1940;51.052;13.678;2024-01-11T14:50:53;-0.70;63.40
3850;DHT22;1940;51.052;13.678;2024-01-11T14:53:18;-0.70;63.70
3850;DHT22;1940;51.052;13.678;2024-01-11T14:55:44;-0.70;64.00
3850;DHT22;1940;51.052;13.678;2024-01-11T14:58:09;-0.70;64.30
3850;DHT22;1940;51.052;13.678;2024-01-11T15:00:35;-0.70;64.60
3850;DHT22;1940;51.052;13.678;2024-01-11T15:03:00;-0.80;64.90
3850;DHT22;1940;51.052;13.678;2024-01-11T15:05:26;-0.80;65.00
3850;DHT22;1940;51.052;13.678;2024-01-11T15:07:51;-0.90;65.60
3850;DHT22;1940;51.052;13.678;2024-01-11T15:10:16;-1.00;66.30
3850;DHT22;1940;51.052;13.678;2024-01-11T15:12:43;-1.00;66.70
3850;DHT22;1940;51.052;13.678;2024-01-11T15:15:08;-1.10;66.90
3850;DHT22;1940;51.052;13.678;2024-01-11T15:17:34;-1.10;67.10
3850;DHT22;1940;51.052;13.678;2024-01-11T15:20:00;-1.10;67.40
3850;DHT22;1940;51.052;13.678;2024-01-11T15:22:27;-1.10;67.60
3850;DHT22;1940;51.052;13.678;2024-01-11T15:24:53;-1.10;67.90
3850;DHT22;1940;51.052;13.678;2024-01-11T15:27:20;-1.10;67.90
3850;DHT22;1940;51.052;13.678;2024-01-11T15:29:46;-1.20;68.10
3850;DHT22;1940;51.052;13.678;2024-01-11T15:32:12;-1.20;68.20
3850;DHT22;1940;51.052;13.678;2024-01-11T15:34:38;-1.30;68.10
3850;DHT22;1940;51.052;13.678;2024-01-11T15:37:03;-1.30;68.30
3850;DHT22;1940;51.052;13.678;2024-01-11T15:39:29;-1.30;68.30
3850;DHT22;1940;51.052;13.678;2024-01-11T15:41:55;-1.30;68.20
3850;DHT22;1940;51.052;13.678;2024-01-11T15:44:20;-1.30;68.30
3850;DHT22;1940;51.052;13.678;2024-01-11T15:46:46;-1.40;68.60
3850;DHT22;1940;51.052;13.678;2024-01-11T15:49:11;-1.40;68.60